sensor_id;sensor_type;location;lat;lon;timestamp;P1;durP1;ratioP1;P2;durP2;ratioP2
17570;SDS011;8903;52.220;20.978;2023-03-16T00:00:01;29.63;;;14.30;;
17570;SDS011;8903;52.220;20.978;2023-03-16T00:02:33;30.10;;;15.10;;
17570;SDS011;8903;52.220;20.978;2023-03-16T00:05:00;29.20;;;14.33;;
17570;SDS011;8903;52.220;20.978;2023-03-16T00:07:27;29.77;;;14.10;;
17570;SDS011;8903;52.220;20.978;2023-03-16T00:09:54;31.53;;;15.93;;
17570;SDS011;8903;52.220;20.978;2023-03-16T00:12:21;20.70;;;13.10;;
17570;SDS011;8903;52.220;20.978;2023-03-16T00:14:50;29.37;;;13.80;;
17570;SDS011;8903;52.220;20.978;2023-03-16T00:17:19;22.50;;;13.80;;
17570;SDS011;8903;52.220;20.978;2023-03-16T00:19:47;32.03;;;14.80;;
17570;SDS011;8903;52.220;20.978;2023-03-16T00:22:19;22.00;;;13.07;;
17570;SDS011;8903;52.220;20.978;2023-03-16T00:24:46;26.80;;;14.33;;
17570;SDS011;8903;52.220;20.978;2023-03-16T00:27:14;28.33;;;13.50;;
17570;SDS011;8903;52.220;20.978;2023-03-16T00:29:41;24.80;;;13.37;;
17570;SDS011;8903;52.220;20.978;2023-03-16T00:32:12;29.77;;;14.53;;
17570;SDS011;8903;52.220;20.978;2023-03-16T00:34:42;28.10;;;14.80;;
17570;SDS011;8903;52.220;20.978;2023-03-16T00:37:10;32.20;;;13.40;;
17570;SDS011;8903;52.220;20.978;2023-03-16T00:39:39;35.70;;;14.50;;
17570;SDS011;8903;52.220;20.978;2023-03-16T00:42:07;28.13;;;14.93;;
17570;SDS011;8903;52.220;20.978;2023-03-16T00:44:34;26.87;;;12.70;;
17570;SDS011;8903;52.220;20.978;2023-03-16T00:47:02;28.60;;;14.23;;
17570;SDS011;8903;52.220;20.978;2023-03-16T00:49:29;24.70;;;13.13;;
17570;SDS011;8903;52.220;20.978;2023-03-16T00:52:00;26.60;;;13.07;;
17570;SDS011;8903;52.220;20.978;2023-03-16T00:54:28;21.00;;;12.67;;
17570;SDS011;8903;52.220;20.978;2023-03-16T00:56:57;29.33;;;12.90;;
17570;SDS011;8903;52.220;20.978;2023-03-16T00:59:24;19.13;;;11.93;;
17570;SDS011;8903;52.220;20.978;2023-03-16T01:01:51;21.23;;;12.40;;
17570;SDS011;8903;52.220;20.978;2023-03-16T01:04:19;23.13;;;11.40;;
17570;SDS011;8903;52.220;20.978;2023-03-16T01:06:47;22.83;;;11.60;;
17570;SDS011;8903;52.220;20.978;2023-03-16T01:09:17;17.27;;;11.30;;
17570;SDS011;8903;52.220;20.978;2023-03-16T01:11:44;24.13;;;12.27;;
17570;SDS011;8903;52.220;20.978;2023-03-16T01:14:13;31.50;;;12.63;;
17570;SDS011;8903;52.220;20.978;2023-03-16T01:16:40;24.30;;;12.00;;
17570;SDS011;8903;52.220;20.978;2023-03-16T01:19:10;24.13;;;12.77;;
17570;SDS011;8903;52.220;20.978;2023-03-16T01:21:37;29.30;;;12.90;;
17570;SDS011;8903;52.220;20.978;2023-03-16T01:24:05;24.03;;;12.23;;
17570;SDS011;8903;52.220;20.978;2023-03-16T01:26:34;24.70;;;12.50;;
17570;SDS011;8903;52.220;20.978;2023-03-16T01:29:01;23.97;;;13.87;;
17570;SDS011;8903;52.220;20.978;2023-03-16T01:31:28;24.10;;;13.17;;
17570;SDS011;8903;52.220;20.978;2023-03-16T01:33:56;20.67;;;12.50;;
17570;SDS011;8903;52.220;20.978;2023-03-16T01:36:27;29.10;;;12.37;;
17570;SDS011;8903;52.220;20.978;2023-03-16T01:39:00;27.23;;;13.27;;
17570;SDS011;8903;52.220;20.978;2023-03-16T01:41:36;17.80;;;11.60;;
17570;SDS011;8903;52.220;20.978;2023-03-16T01:44:03;28.53;;;13.37;;
17570;SDS011;8903;52.220;20.978;2023-03-16T01:46:31;28.83;;;13.47;;
17570;SDS011;8903;52.220;20.978;2023-03-16T01:49:01;22.80;;;12.87;;
17570;SDS011;8903;52.220;20.978;2023-03-16T01:51:35;28.77;;;12.80;;
17570;SDS011;8903;52.220;20.978;2023-03-16T01:54:09;18.83;;;11.17;;
17570;SDS011;8903;52.220;20.978;2023-03-16T01:56:42;23.53;;;13.60;;
17570;SDS011;8903;52.220;20.978;2023-03-16T01:59:15;34.93;;;14.23;;
17570;SDS011;8903;52.220;20.978;2023-03-16T02:01:46;33.17;;;13.23;;
17570;SDS011;8903;52.220;20.978;2023-03-16T02:04:19;21.73;;;11.67;;
17570;SDS011;8903;52.220;20.978;2023-03-16T02:06:58;20.80;;;13.60;;
17570;SDS011;8903;52.220;20.978;2023-03-16T02:09:28;19.50;;;11.50;;
17570;SDS011;8903;52.220;20.978;2023-03-16T02:11:58;15.83;;;11.33;;
17570;SDS011;8903;52.220;20.978;2023-03-16T02:14:28;24.63;;;11.07;;
17570;SDS011;8903;52.220;20.978;2023-03-16T02:16:56;21.47;;;11.70;;
17570;SDS011;8903;52.220;20.978;2023-03-16T02:19:27;23.27;;;12.30;;
17570;SDS011;8903;52.220;20.978;2023-03-16T02:22:00;23.70;;;12.77;;
17570;SDS011;8903;52.220;20.978;2023-03-16T02:24:30;21.30;;;11.13;;
17570;SDS011;8903;52.220;20.978;2023-03-16T02:27:00;16.33;;;9.33;;
17570;SDS011;8903;52.220;20.978;2023-03-16T02:32:38;19.00;;;10.67;;
17570;SDS011;8903;52.220;20.978;2023-03-16T02:35:07;21.63;;;11.13;;
17570;SDS011;8903;52.220;20.978;2023-03-16T02:37:35;22.10;;;11.60;;
17570;SDS011;8903;52.220;20.978;2023-03-16T02:40:12;24.53;;;12.40;;
17570;SDS011;8903;52.220;20.978;2023-03-16T02:42:47;21.40;;;11.80;;
17570;SDS011;8903;52.220;20.978;2023-03-16T02:45:21;21.47;;;10.90;;
17570;SDS011;8903;52.220;20.978;2023-03-16T02:47:50;27.83;;;12.20;;
17570;SDS011;8903;52.220;20.978;2023-03-16T02:50:20;24.33;;;12.30;;
17570;SDS011;8903;52.220;20.978;2023-03-16T02:52:47;26.37;;;12.30;;
17570;SDS011;8903;52.220;20.978;2023-03-16T02:55:15;22.47;;;14.60;;
17570;SDS011;8903;52.220;20.978;2023-03-16T02:57:43;25.10;;;13.83;;
17570;SDS011;8903;52.220;20.978;2023-03-16T03:00:13;27.23;;;14.10;;
17570;SDS011;8903;52.220;20.978;2023-03-16T03:02:45;22.53;;;12.57;;
17570;SDS011;8903;52.220;20.978;2023-03-16T03:05:12;28.60;;;13.80;;
17570;SDS011;8903;52.220;20.978;2023-03-16T03:07:40;31.53;;;14.97;;
17570;SDS011;8903;52.220;20.978;2023-03-16T03:10:07;30.70;;;15.50;;
17570;SDS011;8903;52.220;20.978;2023-03-16T03:12:36;28.30;;;14.00;;
17570;SDS011;8903;52.220;20.978;2023-03-16T03:15:06;27.00;;;12.73;;
17570;SDS011;8903;52.220;20.978;2023-03-16T03:17:43;48.40;;;15.03;;
17570;SDS011;8903;52.220;20.978;2023-03-16T03:20:13;33.97;;;14.17;;
17570;SDS011;8903;52.220;20.978;2023-03-16T03:22:42;33.00;;;14.03;;
17570;SDS011;8903;52.220;20.978;2023-03-16T03:25:10;27.13;;;14.37;;
17570;SDS011;8903;52.220;20.978;2023-03-16T03:27:39;23.60;;;14.50;;
17570;SDS011;8903;52.220;20.978;2023-03-16T03:30:09;25.27;;;14.00;;
17570;SDS011;8903;52.220;20.978;2023-03-16T03:32:38;29.53;;;15.37;;
17570;SDS011;8903;52.220;20.978;2023-03-16T03:35:05;30.70;;;15.83;;
17570;SDS011;8903;52.220;20.978;2023-03-16T03:37:38;33.50;;;16.43;;
17570;SDS011;8903;52.220;20.978;2023-03-16T03:40:07;26.60;;;15.47;;
17570;SDS011;8903;52.220;20.978;2023-03-16T03:42:38;30.23;;;16.60;;
17570;SDS011;8903;52.220;20.978;2023-03-16T03:45:06;24.63;;;14.27;;
17570;SDS011;8903;52.220;20.978;2023-03-16T03:47:37;27.47;;;14.90;;
17570;SDS011;8903;52.220;20.978;2023-03-16T03:50:06;27.23;;;14.93;;
17570;SDS011;8903;52.220;20.978;2023-03-16T03:52:45;30.63;;;15.17;;
17570;SDS011;8903;52.220;20.978;2023-03-16T03:55:13;28.33;;;13.67;;
17570;SDS011;8903;52.220;20.978;2023-03-16T03:57:39;24.87;;;15.43;;
17570;SDS011;8903;52.220;20.978;2023-03-16T04:00:07;27.50;;;15.30;;
17570;SDS011;8903;52.220;20.978;2023-03-16T04:02:38;30.00;;;15.73;;
17570;SDS011;8903;52.220;20.978;2023-03-16T04:05:13;38.30;;;15.93;;
17570;SDS011;8903;52.220;20.978;2023-03-16T04:07:41;29.33;;;16.13;;
17570;SDS011;8903;52.220;20.978;2023-03-16T04:10:12;32.17;;;16.17;;
17570;SDS011;8903;52.220;20.978;2023-03-16T04:12:41;33.93;;;16.00;;
17570;SDS011;8903;52.220;20.978;2023-03-16T04:15:10;29.80;;;15.87;;
17570;SDS011;8903;52.220;20.978;2023-03-16T04:17:58;40.50;;;28.60;;
17570;SDS011;8903;52.220;20.978;2023-03-16T04:20:26;52.63;;;37.47;;
17570;SDS011;8903;52.220;20.978;2023-03-16T04:22:54;63.83;;;41.30;;
17570;SDS011;8903;52.220;20.978;2023-03-16T04:25:24;67.27;;;44.13;;
17570;SDS011;8903;52.220;20.978;2023-03-16T04:27:52;62.17;;;43.10;;
17570;SDS011;8903;52.220;20.978;2023-03-16T04:30:22;59.57;;;42.57;;
17570;SDS011;8903;52.220;20.978;2023-03-16T04:32:54;50.10;;;35.20;;
17570;SDS011;8903;52.220;20.978;2023-03-16T04:35:22;41.10;;;25.43;;
17570;SDS011;8903;52.220;20.978;2023-03-16T04:37:52;39.00;;;23.80;;
17570;SDS011;8903;52.220;20.978;2023-03-16T04:40:26;42.53;;;26.27;;
17570;SDS011;8903;52.220;20.978;2023-03-16T04:43:02;34.43;;;22.40;;
17570;SDS011;8903;52.220;20.978;2023-03-16T04:45:31;37.97;;;23.83;;
17570;SDS011;8903;52.220;20.978;2023-03-16T04:47:59;45.23;;;24.70;;
17570;SDS011;8903;52.220;20.978;2023-03-16T04:50:26;54.60;;;26.40;;
17570;SDS011;8903;52.220;20.978;2023-03-16T04:52:53;40.53;;;23.40;;
17570;SDS011;8903;52.220;20.978;2023-03-16T04:55:20;39.43;;;24.60;;
17570;SDS011;8903;52.220;20.978;2023-03-16T04:57:49;39.57;;;25.70;;
17570;SDS011;8903;52.220;20.978;2023-03-16T05:00:19;41.40;;;24.63;;
17570;SDS011;8903;52.220;20.978;2023-03-16T05:03:08;43.80;;;26.00;;
17570;SDS011;8903;52.220;20.978;2023-03-16T05:05:35;40.33;;;23.90;;
17570;SDS011;8903;52.220;20.978;2023-03-16T05:08:03;41.77;;;25.20;;
17570;SDS011;8903;52.220;20.978;2023-03-16T05:10:32;33.87;;;21.90;;
17570;SDS011;8903;52.220;20.978;2023-03-16T05:13:02;46.00;;;22.20;;
17570;SDS011;8903;52.220;20.978;2023-03-16T05:15:30;40.13;;;21.33;;
17570;SDS011;8903;52.220;20.978;2023-03-16T05:18:02;37.73;;;23.97;;
17570;SDS011;8903;52.220;20.978;2023-03-16T05:20:29;38.83;;;20.53;;
17570;SDS011;8903;52.220;20.978;2023-03-16T05:22:59;40.57;;;22.60;;
17570;SDS011;8903;52.220;20.978;2023-03-16T05:25:32;38.17;;;21.20;;
17570;SDS011;8903;52.220;20.978;2023-03-16T05:28:04;43.40;;;20.43;;
17570;SDS011;8903;52.220;20.978;2023-03-16T05:30:42;43.20;;;21.37;;
17570;SDS011;8903;52.220;20.978;2023-03-16T05:33:14;37.37;;;19.13;;
17570;SDS011;8903;52.220;20.978;2023-03-16T05:35:42;38.90;;;18.90;;
17570;SDS011;8903;52.220;20.978;2023-03-16T05:38:11;31.37;;;20.33;;
17570;SDS011;8903;52.220;20.978;2023-03-16T05:40:41;30.97;;;18.50;;
17570;SDS011;8903;52.220;20.978;2023-03-16T05:43:17;40.10;;;21.50;;
17570;SDS011;8903;52.220;20.978;2023-03-16T05:45:48;31.57;;;18.87;;
17570;SDS011;8903;52.220;20.978;2023-03-16T05:48:17;41.30;;;20.53;;
17570;SDS011;8903;52.220;20.978;2023-03-16T05:50:49;35.63;;;20.13;;
17570;SDS011;8903;52.220;20.978;2023-03-16T05:53:20;39.27;;;18.93;;
17570;SDS011;8903;52.220;20.978;2023-03-16T05:55:53;31.80;;;19.17;;
17570;SDS011;8903;52.220;20.978;2023-03-16T05:58:22;35.07;;;20.27;;
17570;SDS011;8903;52.220;20.978;2023-03-16T06:00:50;33.40;;;19.37;;
17570;SDS011;8903;52.220;20.978;2023-03-16T06:03:24;37.63;;;20.13;;
17570;SDS011;8903;52.220;20.978;2023-03-16T06:05:52;35.80;;;20.00;;
17570;SDS011;8903;52.220;20.978;2023-03-16T06:08:28;32.83;;;18.10;;
17570;SDS011;8903;52.220;20.978;2023-03-16T06:11:04;29.80;;;16.27;;
17570;SDS011;8903;52.220;20.978;2023-03-16T06:13:33;34.70;;;17.10;;
17570;SDS011;8903;52.220;20.978;2023-03-16T06:16:01;40.30;;;19.37;;
17570;SDS011;8903;52.220;20.978;2023-03-16T06:18:32;30.53;;;15.50;;
17570;SDS011;8903;52.220;20.978;2023-03-16T06:20:59;29.53;;;18.00;;
17570;SDS011;8903;52.220;20.978;2023-03-16T06:23:28;30.07;;;18.93;;
17570;SDS011;8903;52.220;20.978;2023-03-16T06:25:57;33.27;;;17.77;;
17570;SDS011;8903;52.220;20.978;2023-03-16T06:28:27;25.73;;;16.10;;
17570;SDS011;8903;52.220;20.978;2023-03-16T06:30:56;27.97;;;16.47;;
17570;SDS011;8903;52.220;20.978;2023-03-16T06:33:28;36.83;;;17.73;;
17570;SDS011;8903;52.220;20.978;2023-03-16T06:35:55;36.70;;;18.07;;
17570;SDS011;8903;52.220;20.978;2023-03-16T06:38:30;36.20;;;16.27;;
17570;SDS011;8903;52.220;20.978;2023-03-16T06:41:06;35.53;;;19.80;;
17570;SDS011;8903;52.220;20.978;2023-03-16T06:43:34;33.80;;;17.60;;
17570;SDS011;8903;52.220;20.978;2023-03-16T06:46:03;35.20;;;18.80;;
17570;SDS011;8903;52.220;20.978;2023-03-16T06:48:30;33.33;;;20.10;;
17570;SDS011;8903;52.220;20.978;2023-03-16T06:50:57;28.80;;;16.83;;
17570;SDS011;8903;52.220;20.978;2023-03-16T06:53:26;31.07;;;18.30;;
17570;SDS011;8903;52.220;20.978;2023-03-16T06:55:55;30.63;;;17.03;;
17570;SDS011;8903;52.220;20.978;2023-03-16T06:58:24;33.77;;;20.10;;
17570;SDS011;8903;52.220;20.978;2023-03-16T07:00:51;42.00;;;22.23;;
17570;SDS011;8903;52.220;20.978;2023-03-16T07:03:20;28.23;;;16.70;;
17570;SDS011;8903;52.220;20.978;2023-03-16T07:05:54;40.30;;;20.03;;
17570;SDS011;8903;52.220;20.978;2023-03-16T07:08:21;29.30;;;18.20;;
17570;SDS011;8903;52.220;20.978;2023-03-16T07:10:49;32.50;;;17.17;;
17570;SDS011;8903;52.220;20.978;2023-03-16T07:13:16;33.87;;;17.17;;
17570;SDS011;8903;52.220;20.978;2023-03-16T07:15:43;30.70;;;17.40;;
17570;SDS011;8903;52.220;20.978;2023-03-16T07:18:10;32.77;;;16.60;;
17570;SDS011;8903;52.220;20.978;2023-03-16T07:20:39;33.60;;;17.40;;
17570;SDS011;8903;52.220;20.978;2023-03-16T07:23:06;32.03;;;16.77;;
17570;SDS011;8903;52.220;20.978;2023-03-16T07:25:34;28.27;;;15.83;;
17570;SDS011;8903;52.220;20.978;2023-03-16T07:28:02;29.13;;;19.10;;
17570;SDS011;8903;52.220;20.978;2023-03-16T07:30:34;27.97;;;16.07;;
17570;SDS011;8903;52.220;20.978;2023-03-16T07:33:03;29.70;;;15.40;;
17570;SDS011;8903;52.220;20.978;2023-03-16T07:35:30;31.70;;;17.13;;
17570;SDS011;8903;52.220;20.978;2023-03-16T07:37:58;29.03;;;16.10;;
17570;SDS011;8903;52.220;20.978;2023-03-16T07:40:26;29.27;;;15.70;;
17570;SDS011;8903;52.220;20.978;2023-03-16T07:43:00;21.50;;;13.13;;
17570;SDS011;8903;52.220;20.978;2023-03-16T07:45:33;77.00;;;29.60;;
17570;SDS011;8903;52.220;20.978;2023-03-16T07:48:02;31.63;;;15.97;;
17570;SDS011;8903;52.220;20.978;2023-03-16T07:50:37;20.50;;;12.83;;
17570;SDS011;8903;52.220;20.978;2023-03-16T07:53:06;31.97;;;16.30;;
17570;SDS011;8903;52.220;20.978;2023-03-16T07:55:36;29.23;;;16.77;;
17570;SDS011;8903;52.220;20.978;2023-03-16T07:58:04;35.73;;;16.53;;
17570;SDS011;8903;52.220;20.978;2023-03-16T08:00:36;26.37;;;15.33;;
17570;SDS011;8903;52.220;20.978;2023-03-16T08:03:04;23.70;;;14.20;;
17570;SDS011;8903;52.220;20.978;2023-03-16T08:05:31;24.10;;;15.20;;
17570;SDS011;8903;52.220;20.978;2023-03-16T08:08:02;24.80;;;15.63;;
17570;SDS011;8903;52.220;20.978;2023-03-16T08:10:32;25.97;;;14.10;;
17570;SDS011;8903;52.220;20.978;2023-03-16T08:13:06;19.70;;;13.40;;
17570;SDS011;8903;52.220;20.978;2023-03-16T08:15:34;21.97;;;14.00;;
17570;SDS011;8903;52.220;20.978;2023-03-16T08:18:08;23.40;;;13.90;;
17570;SDS011;8903;52.220;20.978;2023-03-16T08:20:36;25.10;;;15.13;;
17570;SDS011;8903;52.220;20.978;2023-03-16T08:23:03;25.47;;;17.27;;
17570;SDS011;8903;52.220;20.978;2023-03-16T08:25:38;21.83;;;14.53;;
17570;SDS011;8903;52.220;20.978;2023-03-16T08:28:12;27.63;;;13.30;;
17570;SDS011;8903;52.220;20.978;2023-03-16T08:30:44;20.93;;;16.33;;
17570;SDS011;8903;52.220;20.978;2023-03-16T08:33:45;27.43;;;15.43;;
17570;SDS011;8903;52.220;20.978;2023-03-16T08:36:16;27.80;;;16.10;;
17570;SDS011;8903;52.220;20.978;2023-03-16T08:38:48;31.17;;;18.27;;
17570;SDS011;8903;52.220;20.978;2023-03-16T08:41:20;27.47;;;17.10;;
17570;SDS011;8903;52.220;20.978;2023-03-16T08:43:49;29.90;;;17.10;;
17570;SDS011;8903;52.220;20.978;2023-03-16T08:46:17;35.50;;;17.47;;
17570;SDS011;8903;52.220;20.978;2023-03-16T08:48:51;31.23;;;18.23;;
17570;SDS011;8903;52.220;20.978;2023-03-16T08:51:21;30.43;;;15.73;;
17570;SDS011;8903;52.220;20.978;2023-03-16T08:53:49;26.40;;;16.90;;
17570;SDS011;8903;52.220;20.978;2023-03-16T08:56:17;21.20;;;14.87;;
17570;SDS011;8903;52.220;20.978;2023-03-16T08:58:45;23.30;;;14.00;;
17570;SDS011;8903;52.220;20.978;2023-03-16T09:01:14;25.10;;;14.67;;
17570;SDS011;8903;52.220;20.978;2023-03-16T09:04:08;19.83;;;12.53;;
17570;SDS011;8903;52.220;20.978;2023-03-16T09:07:01;20.60;;;12.07;;
17570;SDS011;8903;52.220;20.978;2023-03-16T09:09:53;25.83;;;11.60;;
17570;SDS011;8903;52.220;20.978;2023-03-16T09:12:45;30.90;;;14.30;;
17570;SDS011;8903;52.220;20.978;2023-03-16T09:15:13;21.30;;;11.47;;
17570;SDS011;8903;52.220;20.978;2023-03-16T09:17:44;14.33;;;10.17;;
17570;SDS011;8903;52.220;20.978;2023-03-16T09:20:13;16.43;;;9.17;;
17570;SDS011;8903;52.220;20.978;2023-03-16T09:22:43;20.37;;;11.80;;
17570;SDS011;8903;52.220;20.978;2023-03-16T09:25:10;24.80;;;12.43;;
17570;SDS011;8903;52.220;20.978;2023-03-16T09:27:37;20.10;;;9.50;;
17570;SDS011;8903;52.220;20.978;2023-03-16T09:32:58;11.00;;;7.30;;
17570;SDS011;8903;52.220;20.978;2023-03-16T09:35:51;11.27;;;8.13;;
17570;SDS011;8903;52.220;20.978;2023-03-16T09:38:18;16.53;;;8.03;;
17570;SDS011;8903;52.220;20.978;2023-03-16T09:40:47;18.07;;;9.90;;
17570;SDS011;8903;52.220;20.978;2023-03-16T09:46:07;17.40;;;7.43;;
17570;SDS011;8903;52.220;20.978;2023-03-16T09:49:01;13.70;;;7.00;;
17570;SDS011;8903;52.220;20.978;2023-03-16T09:51:34;12.23;;;7.23;;
17570;SDS011;8903;52.220;20.978;2023-03-16T09:54:04;14.50;;;7.43;;
17570;SDS011;8903;52.220;20.978;2023-03-16T09:57:08;12.07;;;8.27;;
17570;SDS011;8903;52.220;20.978;2023-03-16T09:59:42;13.57;;;8.97;;
17570;SDS011;8903;52.220;20.978;2023-03-16T10:02:42;11.80;;;7.80;;
17570;SDS011;8903;52.220;20.978;2023-03-16T10:05:19;12.60;;;8.20;;
17570;SDS011;8903;52.220;20.978;2023-03-16T10:07:50;11.63;;;7.63;;
17570;SDS011;8903;52.220;20.978;2023-03-16T10:13:43;6.70;;;5.93;;
17570;SDS011;8903;52.220;20.978;2023-03-16T10:16:38;14.00;;;6.53;;
17570;SDS011;8903;52.220;20.978;2023-03-16T10:19:12;9.00;;;6.17;;
17570;SDS011;8903;52.220;20.978;2023-03-16T10:21:43;17.93;;;7.43;;
17570;SDS011;8903;52.220;20.978;2023-03-16T10:24:39;14.43;;;5.67;;
17570;SDS011;8903;52.220;20.978;2023-03-16T10:27:12;7.70;;;5.90;;
17570;SDS011;8903;52.220;20.978;2023-03-16T10:29:44;13.80;;;6.40;;
17570;SDS011;8903;52.220;20.978;2023-03-16T10:32:13;15.43;;;4.70;;
17570;SDS011;8903;52.220;20.978;2023-03-16T10:34:45;4.63;;;4.23;;
17570;SDS011;8903;52.220;20.978;2023-03-16T10:37:19;10.50;;;5.17;;
17570;SDS011;8903;52.220;20.978;2023-03-16T10:39:47;9.60;;;5.63;;
17570;SDS011;8903;52.220;20.978;2023-03-16T10:42:15;22.77;;;5.87;;
17570;SDS011;8903;52.220;20.978;2023-03-16T10:44:43;6.00;;;4.77;;
17570;SDS011;8903;52.220;20.978;2023-03-16T10:47:15;7.20;;;6.17;;
17570;SDS011;8903;52.220;20.978;2023-03-16T10:49:45;11.47;;;5.00;;
17570;SDS011;8903;52.220;20.978;2023-03-16T10:52:17;9.67;;;5.90;;
17570;SDS011;8903;52.220;20.978;2023-03-16T10:54:49;13.33;;;6.37;;
17570;SDS011;8903;52.220;20.978;2023-03-16T10:57:20;9.27;;;5.63;;
17570;SDS011;8903;52.220;20.978;2023-03-16T10:59:50;9.80;;;5.77;;
17570;SDS011;8903;52.220;20.978;2023-03-16T11:02:20;9.47;;;7.07;;
17570;SDS011;8903;52.220;20.978;2023-03-16T11:04:52;11.73;;;6.20;;
17570;SDS011;8903;52.220;20.978;2023-03-16T11:07:20;9.80;;;6.20;;
17570;SDS011;8903;52.220;20.978;2023-03-16T11:09:49;10.50;;;5.83;;
17570;SDS011;8903;52.220;20.978;2023-03-16T11:12:21;10.67;;;6.60;;
17570;SDS011;8903;52.220;20.978;2023-03-16T11:14:51;7.20;;;4.73;;
17570;SDS011;8903;52.220;20.978;2023-03-16T11:17:21;16.50;;;5.73;;
17570;SDS011;8903;52.220;20.978;2023-03-16T11:19:56;7.30;;;4.70;;
17570;SDS011;8903;52.220;20.978;2023-03-16T11:22:30;8.10;;;4.57;;
17570;SDS011;8903;52.220;20.978;2023-03-16T11:24:59;10.37;;;4.33;;
17570;SDS011;8903;52.220;20.978;2023-03-16T11:27:35;6.87;;;4.07;;
17570;SDS011;8903;52.220;20.978;2023-03-16T11:30:10;22.90;;;4.90;;
17570;SDS011;8903;52.220;20.978;2023-03-16T11:32:45;9.47;;;4.97;;
17570;SDS011;8903;52.220;20.978;2023-03-16T11:35:16;12.97;;;5.60;;
17570;SDS011;8903;52.220;20.978;2023-03-16T11:37:56;8.77;;;4.83;;
17570;SDS011;8903;52.220;20.978;2023-03-16T11:40:35;11.87;;;5.67;;
17570;SDS011;8903;52.220;20.978;2023-03-16T11:43:14;9.57;;;4.73;;
17570;SDS011;8903;52.220;20.978;2023-03-16T11:45:55;7.37;;;4.33;;
17570;SDS011;8903;52.220;20.978;2023-03-16T11:48:36;16.43;;;5.27;;
17570;SDS011;8903;52.220;20.978;2023-03-16T11:51:12;13.00;;;4.53;;
17570;SDS011;8903;52.220;20.978;2023-03-16T11:53:51;14.63;;;5.10;;
17570;SDS011;8903;52.220;20.978;2023-03-16T11:56:27;10.70;;;4.70;;
17570;SDS011;8903;52.220;20.978;2023-03-16T11:59:10;11.10;;;4.53;;
17570;SDS011;8903;52.220;20.978;2023-03-16T12:02:01;15.50;;;4.90;;
17570;SDS011;8903;52.220;20.978;2023-03-16T12:04:43;10.30;;;4.77;;
17570;SDS011;8903;52.220;20.978;2023-03-16T12:07:25;12.30;;;5.13;;
17570;SDS011;8903;52.220;20.978;2023-03-16T12:10:12;18.00;;;6.23;;
17570;SDS011;8903;52.220;20.978;2023-03-16T12:15:44;10.30;;;4.83;;
17570;SDS011;8903;52.220;20.978;2023-03-16T12:18:15;14.90;;;5.20;;
17570;SDS011;8903;52.220;20.978;2023-03-16T12:20:47;12.30;;;4.57;;
17570;SDS011;8903;52.220;20.978;2023-03-16T12:23:20;12.70;;;4.47;;
17570;SDS011;8903;52.220;20.978;2023-03-16T12:25:53;9.37;;;4.63;;
17570;SDS011;8903;52.220;20.978;2023-03-16T12:28:25;18.43;;;5.60;;
17570;SDS011;8903;52.220;20.978;2023-03-16T12:30:59;10.07;;;5.73;;
17570;SDS011;8903;52.220;20.978;2023-03-16T12:33:40;14.83;;;5.63;;
17570;SDS011;8903;52.220;20.978;2023-03-16T12:39:19;8.80;;;4.87;;
17570;SDS011;8903;52.220;20.978;2023-03-16T12:41:58;9.27;;;5.30;;
17570;SDS011;8903;52.220;20.978;2023-03-16T12:44:31;10.30;;;6.20;;
17570;SDS011;8903;52.220;20.978;2023-03-16T12:47:06;11.80;;;5.30;;
17570;SDS011;8903;52.220;20.978;2023-03-16T12:49:43;13.10;;;4.30;;
17570;SDS011;8903;52.220;20.978;2023-03-16T12:52:12;5.93;;;4.40;;
17570;SDS011;8903;52.220;20.978;2023-03-16T12:54:49;11.00;;;3.77;;
17570;SDS011;8903;52.220;20.978;2023-03-16T12:57:17;13.43;;;3.83;;
17570;SDS011;8903;52.220;20.978;2023-03-16T12:59:46;9.97;;;4.20;;
17570;SDS011;8903;52.220;20.978;2023-03-16T13:02:16;22.07;;;4.77;;
17570;SDS011;8903;52.220;20.978;2023-03-16T13:04:45;10.10;;;3.77;;
17570;SDS011;8903;52.220;20.978;2023-03-16T13:07:16;12.43;;;3.90;;
17570;SDS011;8903;52.220;20.978;2023-03-16T13:09:46;7.73;;;3.90;;
17570;SDS011;8903;52.220;20.978;2023-03-16T13:12:24;7.50;;;3.27;;
17570;SDS011;8903;52.220;20.978;2023-03-16T13:14:52;5.90;;;3.20;;
17570;SDS011;8903;52.220;20.978;2023-03-16T13:17:25;11.10;;;4.60;;
17570;SDS011;8903;52.220;20.978;2023-03-16T13:19:57;12.80;;;4.17;;
17570;SDS011;8903;52.220;20.978;2023-03-16T13:22:27;7.77;;;2.87;;
17570;SDS011;8903;52.220;20.978;2023-03-16T13:25:10;17.07;;;3.63;;
17570;SDS011;8903;52.220;20.978;2023-03-16T13:27:39;11.13;;;4.57;;
17570;SDS011;8903;52.220;20.978;2023-03-16T13:30:15;10.50;;;4.60;;
17570;SDS011;8903;52.220;20.978;2023-03-16T13:32:44;5.40;;;3.23;;
17570;SDS011;8903;52.220;20.978;2023-03-16T13:35:14;7.90;;;4.03;;
17570;SDS011;8903;52.220;20.978;2023-03-16T13:37:42;12.97;;;4.73;;
17570;SDS011;8903;52.220;20.978;2023-03-16T13:40:18;6.90;;;3.60;;
17570;SDS011;8903;52.220;20.978;2023-03-16T13:42:48;13.60;;;3.47;;
17570;SDS011;8903;52.220;20.978;2023-03-16T13:45:21;7.77;;;3.13;;
17570;SDS011;8903;52.220;20.978;2023-03-16T13:47:49;11.20;;;4.07;;
17570;SDS011;8903;52.220;20.978;2023-03-16T13:50:17;6.43;;;3.63;;
17570;SDS011;8903;52.220;20.978;2023-03-16T13:52:54;6.70;;;3.70;;
17570;SDS011;8903;52.220;20.978;2023-03-16T13:55:26;11.17;;;4.50;;
17570;SDS011;8903;52.220;20.978;2023-03-16T13:57:56;10.00;;;4.97;;
17570;SDS011;8903;52.220;20.978;2023-03-16T14:00:26;14.83;;;5.67;;
17570;SDS011;8903;52.220;20.978;2023-03-16T14:02:57;18.47;;;4.53;;
17570;SDS011;8903;52.220;20.978;2023-03-16T14:05:29;13.17;;;4.60;;
17570;SDS011;8903;52.220;20.978;2023-03-16T14:07:59;7.27;;;4.17;;
17570;SDS011;8903;52.220;20.978;2023-03-16T14:10:30;6.87;;;4.87;;
17570;SDS011;8903;52.220;20.978;2023-03-16T14:13:05;17.43;;;4.80;;
17570;SDS011;8903;52.220;20.978;2023-03-16T14:15:34;14.80;;;6.60;;
17570;SDS011;8903;52.220;20.978;2023-03-16T14:18:07;20.33;;;6.83;;
17570;SDS011;8903;52.220;20.978;2023-03-16T14:20:38;9.83;;;5.03;;
17570;SDS011;8903;52.220;20.978;2023-03-16T14:23:12;12.30;;;4.70;;
17570;SDS011;8903;52.220;20.978;2023-03-16T14:25:45;9.60;;;4.10;;
17570;SDS011;8903;52.220;20.978;2023-03-16T14:28:14;11.70;;;4.80;;
17570;SDS011;8903;52.220;20.978;2023-03-16T14:30:49;10.07;;;4.97;;
17570;SDS011;8903;52.220;20.978;2023-03-16T14:33:27;8.57;;;3.70;;
17570;SDS011;8903;52.220;20.978;2023-03-16T14:35:56;7.77;;;3.13;;
17570;SDS011;8903;52.220;20.978;2023-03-16T14:38:28;7.43;;;4.10;;
17570;SDS011;8903;52.220;20.978;2023-03-16T14:41:02;9.10;;;4.70;;
17570;SDS011;8903;52.220;20.978;2023-03-16T14:43:32;8.83;;;3.80;;
17570;SDS011;8903;52.220;20.978;2023-03-16T14:46:02;8.07;;;4.67;;
17570;SDS011;8903;52.220;20.978;2023-03-16T14:48:31;16.40;;;4.10;;
17570;SDS011;8903;52.220;20.978;2023-03-16T14:50:59;8.93;;;4.03;;
17570;SDS011;8903;52.220;20.978;2023-03-16T14:53:28;10.70;;;4.23;;
17570;SDS011;8903;52.220;20.978;2023-03-16T14:55:56;11.97;;;4.60;;
17570;SDS011;8903;52.220;20.978;2023-03-16T14:58:25;12.10;;;5.47;;
17570;SDS011;8903;52.220;20.978;2023-03-16T15:00:52;9.60;;;3.70;;
17570;SDS011;8903;52.220;20.978;2023-03-16T15:03:21;7.20;;;3.30;;
17570;SDS011;8903;52.220;20.978;2023-03-16T15:05:57;6.30;;;3.47;;
17570;SDS011;8903;52.220;20.978;2023-03-16T15:08:26;8.30;;;3.83;;
17570;SDS011;8903;52.220;20.978;2023-03-16T15:10:56;6.93;;;3.70;;